createdAt,value
2023-03-26T00:00:00.715Z,10.60
2023-03-26T00:01:01.332Z,10.60
2023-03-26T00:02:00.716Z,10.60
2023-03-26T00:03:00.758Z,10.51
2023-03-26T00:04:01.054Z,10.51
2023-03-26T00:05:00.735Z,10.51
2023-03-26T00:06:01.709Z,10.51
2023-03-26T00:07:00.699Z,10.51
2023-03-26T00:08:00.699Z,10.50
2023-03-26T00:09:00.692Z,10.50
2023-03-26T00:10:00.716Z,10.50
2023-03-26T00:11:01.324Z,10.50
2023-03-26T00:12:00.704Z,10.50
2023-03-26T00:13:00.836Z,10.50
2023-03-26T00:14:00.747Z,10.50
2023-03-26T00:15:01.313Z,10.50
2023-03-26T00:16:01.205Z,10.50
2023-03-26T00:17:00.714Z,10.50
2023-03-26T00:18:00.913Z,10.48
2023-03-26T00:19:01.436Z,10.48
2023-03-26T00:20:00.764Z,10.48
2023-03-26T00:21:02.133Z,10.48
2023-03-26T00:22:00.688Z,10.48
2023-03-26T00:23:00.685Z,10.48
2023-03-26T00:24:02.273Z,10.48
2023-03-26T00:25:00.694Z,10.48
2023-03-26T00:26:01.780Z,10.48
2023-03-26T00:27:00.693Z,10.48
2023-03-26T00:28:00.694Z,10.45
2023-03-26T00:29:00.845Z,10.45
2023-03-26T00:30:00.722Z,10.45
2023-03-26T00:31:02.614Z,10.45
2023-03-26T00:32:00.728Z,10.45
2023-03-26T00:33:01.461Z,10.45
2023-03-26T00:34:00.710Z,10.45
2023-03-26T00:35:00.764Z,10.45
2023-03-26T00:36:03.183Z,10.45
2023-03-26T00:37:00.718Z,10.45
2023-03-26T00:38:00.691Z,10.45
2023-03-26T00:39:00.747Z,10.45
2023-03-26T00:40:01.128Z,10.45
2023-03-26T00:41:00.695Z,10.45
2023-03-26T00:42:00.701Z,10.45
2023-03-26T00:43:00.688Z,10.44
2023-03-26T00:44:00.702Z,10.44
2023-03-26T00:45:00.719Z,10.44
2023-03-26T00:46:00.825Z,10.44
2023-03-26T00:47:00.688Z,10.44
2023-03-26T00:48:02.664Z,10.43
2023-03-26T00:49:01.117Z,10.43
2023-03-26T00:50:00.832Z,10.43
2023-03-26T00:51:00.721Z,10.43
2023-03-26T00:52:00.692Z,10.43
2023-03-26T00:53:00.693Z,10.47
2023-03-26T00:54:00.800Z,10.47
2023-03-26T00:55:00.747Z,10.47
2023-03-26T00:56:00.721Z,10.47
2023-03-26T00:57:01.355Z,10.47
2023-03-26T00:58:00.971Z,10.67
2023-03-26T00:59:00.832Z,10.67
2023-03-26T01:00:00.720Z,10.67
2023-03-26T01:01:02.683Z,10.67
2023-03-26T01:02:01.098Z,10.67
2023-03-26T01:03:01.494Z,10.69
2023-03-26T01:04:10.660Z,10.69
2023-03-26T01:05:10.694Z,10.69
2023-03-26T01:06:02.070Z,10.69
2023-03-26T01:07:02.129Z,10.69
2023-03-26T01:08:03.495Z,10.72
2023-03-26T01:09:02.402Z,10.72
2023-03-26T01:10:00.703Z,10.72
2023-03-26T01:11:03.946Z,10.72
2023-03-26T01:12:01.829Z,10.72
2023-03-26T01:13:00.773Z,10.71
2023-03-26T01:14:00.692Z,10.71
2023-03-26T01:15:01.241Z,10.71
2023-03-26T01:16:01.079Z,10.71
2023-03-26T01:17:01.852Z,10.71
2023-03-26T01:18:00.848Z,10.69
2023-03-26T01:19:00.758Z,10.69
2023-03-26T01:20:00.694Z,10.69
2023-03-26T01:21:01.629Z,10.69
2023-03-26T01:22:00.712Z,10.69
2023-03-26T01:23:03.620Z,10.71
2023-03-26T01:24:03.152Z,10.71
2023-03-26T01:25:00.856Z,10.71
2023-03-26T01:26:04.094Z,10.71
2023-03-26T01:27:00.683Z,10.71
2023-03-26T01:28:01.071Z,10.71
2023-03-26T01:29:02.254Z,10.71
2023-03-26T01:30:06.276Z,10.71
2023-03-26T01:31:08.753Z,10.71
2023-03-26T01:32:03.981Z,10.71
2023-03-26T01:33:00.900Z,10.68
2023-03-26T01:34:10.611Z,10.68
2023-03-26T01:35:03.949Z,10.68
2023-03-26T01:36:10.692Z,10.68
2023-03-26T01:37:08.481Z,10.68
2023-03-26T01:38:09.173Z,10.66
2023-03-26T01:39:00.896Z,10.66
2023-03-26T01:40:03.499Z,10.66
2023-03-26T01:41:10.615Z,10.66
2023-03-26T01:42:05.274Z,10.66
2023-03-26T01:43:09.683Z,10.65
2023-03-26T01:44:10.635Z,10.65
2023-03-26T01:45:06.316Z,10.65
2023-03-26T01:46:02.856Z,10.65
2023-03-26T01:47:01.142Z,10.65
2023-03-26T01:48:01.213Z,10.62
2023-03-26T01:49:02.616Z,10.62
2023-03-26T01:50:00.766Z,10.62
2023-03-26T01:51:00.884Z,10.62
2023-03-26T01:52:00.744Z,10.62
2023-03-26T01:53:00.738Z,10.61
2023-03-26T01:54:03.139Z,10.61
2023-03-26T01:55:01.065Z,10.61
2023-03-26T01:56:08.893Z,10.61
2023-03-26T01:57:10.683Z,10.61
2023-03-26T01:58:08.929Z,10.61
2023-03-26T01:59:05.482Z,10.61
2023-03-26T02:00:00.692Z,10.61
2023-03-26T02:01:08.770Z,10.61
2023-03-26T02:02:08.698Z,10.61
2023-03-26T02:03:09.936Z,10.59
2023-03-26T02:04:07.173Z,10.59
2023-03-26T02:05:10.602Z,10.59
2023-03-26T02:06:06.024Z,10.59
2023-03-26T02:07:05.957Z,10.59
2023-03-26T02:08:07.508Z,10.62
2023-03-26T02:09:02.618Z,10.62
2023-03-26T02:10:05.727Z,10.62
2023-03-26T02:11:04.584Z,10.62
2023-03-26T02:12:01.463Z,10.62
2023-03-26T02:13:00.806Z,10.64
2023-03-26T02:14:02.207Z,10.64
2023-03-26T02:15:00.822Z,10.64
2023-03-26T02:16:02.809Z,10.64
2023-03-26T02:17:00.686Z,10.64
2023-03-26T02:18:00.746Z,10.66
2023-03-26T02:19:00.947Z,10.66
2023-03-26T02:20:00.871Z,10.66
2023-03-26T02:21:02.363Z,10.66
2023-03-26T02:22:00.728Z,10.66
2023-03-26T02:23:00.691Z,10.64
2023-03-26T02:24:00.866Z,10.64
2023-03-26T02:25:00.727Z,10.64
2023-03-26T02:26:05.103Z,10.64
2023-03-26T02:27:00.767Z,10.64
2023-03-26T02:28:00.681Z,10.65
2023-03-26T02:29:00.712Z,10.65
2023-03-26T02:30:00.752Z,10.65
2023-03-26T02:31:00.702Z,10.65
2023-03-26T02:32:00.711Z,10.65
2023-03-26T02:33:00.713Z,10.63
2023-03-26T02:34:00.705Z,10.63
2023-03-26T02:35:01.046Z,10.63
2023-03-26T02:36:00.782Z,10.63
2023-03-26T02:37:00.708Z,10.63
2023-03-26T02:38:00.726Z,10.60
2023-03-26T02:39:00.717Z,10.60
2023-03-26T02:40:00.723Z,10.60
2023-03-26T02:41:01.431Z,10.60
2023-03-26T02:42:00.715Z,10.60
2023-03-26T02:43:00.731Z,10.55
2023-03-26T02:44:00.687Z,10.55
2023-03-26T02:45:00.928Z,10.55
2023-03-26T02:46:00.740Z,10.55
2023-03-26T02:47:00.733Z,10.55
2023-03-26T02:48:00.809Z,10.51
2023-03-26T02:49:00.763Z,10.51
2023-03-26T02:50:00.697Z,10.51
2023-03-26T02:51:01.338Z,10.51
2023-03-26T02:52:00.794Z,10.51
2023-03-26T02:53:00.700Z,10.50
2023-03-26T02:54:00.863Z,10.50
2023-03-26T02:55:00.872Z,10.50
2023-03-26T02:56:00.690Z,10.50
2023-03-26T02:57:00.703Z,10.50
2023-03-26T02:58:00.719Z,10.46
2023-03-26T02:59:00.700Z,10.46
2023-03-26T03:00:00.976Z,10.46
2023-03-26T03:01:00.799Z,10.46
2023-03-26T03:02:00.958Z,10.46
2023-03-26T03:03:01.360Z,10.37
2023-03-26T03:04:01.533Z,10.37
2023-03-26T03:05:00.710Z,10.37
2023-03-26T03:06:00.684Z,10.37
2023-03-26T03:07:00.685Z,10.37
2023-03-26T03:08:00.704Z,10.29
2023-03-26T03:09:00.714Z,10.29
2023-03-26T03:10:00.709Z,10.29
2023-03-26T03:11:03.018Z,10.29
2023-03-26T03:12:00.682Z,10.29
2023-03-26T03:13:00.695Z,10.24
2023-03-26T03:14:00.909Z,10.24
2023-03-26T03:15:00.728Z,10.24
2023-03-26T03:16:00.744Z,10.24
2023-03-26T03:17:00.783Z,10.24
2023-03-26T03:18:01.337Z,10.08
2023-03-26T03:19:01.023Z,10.08
2023-03-26T03:20:00.727Z,10.08
2023-03-26T03:21:01.107Z,10.08
2023-03-26T03:22:00.692Z,10.08
2023-03-26T03:23:00.942Z,9.93
2023-03-26T03:24:02.051Z,9.93
2023-03-26T03:25:01.156Z,9.93
2023-03-26T03:26:00.711Z,9.93
2023-03-26T03:27:00.693Z,9.93
2023-03-26T03:28:00.702Z,9.91
2023-03-26T03:29:00.893Z,9.91
2023-03-26T03:30:00.741Z,9.91
2023-03-26T03:31:00.774Z,9.91
2023-03-26T03:32:00.773Z,9.91
2023-03-26T03:33:01.165Z,9.93
2023-03-26T03:34:00.715Z,9.93
2023-03-26T03:35:00.692Z,9.93
2023-03-26T03:36:00.933Z,9.93
2023-03-26T03:37:00.714Z,9.93
2023-03-26T03:38:00.700Z,10.02
2023-03-26T03:39:00.688Z,10.02
2023-03-26T03:40:00.714Z,10.02
2023-03-26T03:41:00.706Z,10.02
2023-03-26T03:42:00.715Z,10.02
2023-03-26T03:43:00.717Z,10.13
2023-03-26T03:44:00.689Z,10.13
2023-03-26T03:45:00.806Z,10.13
2023-03-26T03:46:00.730Z,10.13
2023-03-26T03:47:00.722Z,10.13
2023-03-26T03:48:01.037Z,10.17
2023-03-26T03:49:01.178Z,10.17
2023-03-26T03:50:00.699Z,10.17
2023-03-26T03:51:00.777Z,10.17
2023-03-26T03:52:00.685Z,10.17
2023-03-26T03:53:00.732Z,10.20
2023-03-26T03:54:00.733Z,10.20
2023-03-26T03:55:00.812Z,10.20
2023-03-26T03:56:00.699Z,10.20
2023-03-26T03:57:00.791Z,10.20
2023-03-26T03:58:00.700Z,10.11
2023-03-26T03:59:00.702Z,10.11
2023-03-26T04:00:00.885Z,10.11
2023-03-26T04:01:00.761Z,10.11
2023-03-26T04:02:00.780Z,10.11
2023-03-26T04:03:00.825Z,10.05
2023-03-26T04:04:00.942Z,10.05
2023-03-26T04:05:01.506Z,10.05
2023-03-26T04:06:00.688Z,10.05
2023-03-26T04:07:00.685Z,10.05
2023-03-26T04:08:00.782Z,10.05
2023-03-26T04:09:00.692Z,10.05
2023-03-26T04:10:00.972Z,10.05
2023-03-26T04:11:00.860Z,10.05
2023-03-26T04:12:00.703Z,10.05
2023-03-26T04:13:01.798Z,10.08
2023-03-26T04:14:00.763Z,10.08
2023-03-26T04:15:00.803Z,10.08
2023-03-26T04:16:00.852Z,10.08
2023-03-26T04:17:00.704Z,10.08
2023-03-26T04:18:00.836Z,10.02
2023-03-26T04:19:00.700Z,10.02
2023-03-26T04:20:00.712Z,10.02
2023-03-26T04:21:00.691Z,10.02
2023-03-26T04:22:00.696Z,10.02
2023-03-26T04:23:00.694Z,9.98
2023-03-26T04:24:00.739Z,9.98
2023-03-26T04:25:00.819Z,9.98
2023-03-26T04:26:02.158Z,9.98
2023-03-26T04:27:00.713Z,9.98
2023-03-26T04:28:01.648Z,9.92
2023-03-26T04:29:02.907Z,9.92
2023-03-26T04:30:00.845Z,9.92
2023-03-26T04:31:01.498Z,9.92
2023-03-26T04:32:00.702Z,9.92
2023-03-26T04:33:02.433Z,9.83
2023-03-26T04:34:05.725Z,9.83
2023-03-26T04:35:01.652Z,9.83
2023-03-26T04:36:01.312Z,9.83
2023-03-26T04:37:01.530Z,9.83
2023-03-26T04:38:02.461Z,9.88
2023-03-26T04:39:01.947Z,9.88
2023-03-26T04:40:01.131Z,9.88
2023-03-26T04:41:02.562Z,9.88
2023-03-26T04:42:00.710Z,9.88
2023-03-26T04:43:00.755Z,9.89
2023-03-26T04:44:00.718Z,9.89
2023-03-26T04:45:00.702Z,9.89
2023-03-26T04:46:00.755Z,9.89
2023-03-26T04:47:00.729Z,9.89
2023-03-26T04:48:00.857Z,9.89
2023-03-26T04:49:00.838Z,9.89
2023-03-26T04:50:00.745Z,9.89
2023-03-26T04:51:00.844Z,9.89
2023-03-26T04:52:00.893Z,9.89
2023-03-26T04:53:00.725Z,9.76
2023-03-26T04:54:01.009Z,9.76
2023-03-26T04:55:00.744Z,9.76
2023-03-26T04:56:10.604Z,9.76
2023-03-26T04:57:03.815Z,9.76
2023-03-26T04:58:00.726Z,9.59
2023-03-26T04:59:01.204Z,9.59
2023-03-26T05:00:00.725Z,9.59
2023-03-26T05:01:09.871Z,9.59
2023-03-26T05:02:01.835Z,9.59
2023-03-26T05:03:00.762Z,9.66
2023-03-26T05:04:00.759Z,9.66
2023-03-26T05:05:00.702Z,9.66
2023-03-26T05:06:01.197Z,9.66
2023-03-26T05:07:00.755Z,9.66
2023-03-26T05:08:00.728Z,9.73
2023-03-26T05:09:00.705Z,9.73
2023-03-26T05:10:00.742Z,9.73
2023-03-26T05:11:00.714Z,9.73
2023-03-26T05:12:00.955Z,9.73
2023-03-26T05:13:00.740Z,9.77
2023-03-26T05:14:00.800Z,9.77
2023-03-26T05:15:00.709Z,9.77
2023-03-26T05:16:00.714Z,9.77
2023-03-26T05:17:01.424Z,9.77
2023-03-26T05:18:00.704Z,9.77
2023-03-26T05:19:00.701Z,9.77
2023-03-26T05:20:00.746Z,9.77
2023-03-26T05:21:00.821Z,9.77
2023-03-26T05:22:00.752Z,9.77
2023-03-26T05:23:00.721Z,9.80
2023-03-26T05:24:00.789Z,9.80
2023-03-26T05:25:00.772Z,9.80
2023-03-26T05:26:00.745Z,9.80
2023-03-26T05:27:00.723Z,9.80
2023-03-26T05:28:01.276Z,9.82
2023-03-26T05:29:00.716Z,9.82
2023-03-26T05:30:01.179Z,9.82
2023-03-26T05:31:01.273Z,9.82
2023-03-26T05:32:00.695Z,9.82
2023-03-26T05:33:01.653Z,9.80
2023-03-26T05:34:00.835Z,9.80
2023-03-26T05:35:01.012Z,9.80
2023-03-26T05:36:02.139Z,9.80
2023-03-26T05:37:02.635Z,9.80
2023-03-26T05:38:00.689Z,9.78
2023-03-26T05:39:00.691Z,9.78
2023-03-26T05:40:00.787Z,9.78
2023-03-26T05:41:02.061Z,9.78
2023-03-26T05:42:00.784Z,9.78
2023-03-26T05:43:00.730Z,9.77
2023-03-26T05:44:00.708Z,9.77
2023-03-26T05:45:00.709Z,9.77
2023-03-26T05:46:01.382Z,9.77
2023-03-26T05:47:00.744Z,9.77
2023-03-26T05:48:00.778Z,9.79
2023-03-26T05:49:00.696Z,9.79
2023-03-26T05:50:00.753Z,9.79
2023-03-26T05:51:00.694Z,9.79
2023-03-26T05:52:00.718Z,9.79
2023-03-26T05:53:00.716Z,9.80
2023-03-26T05:54:00.765Z,9.80
2023-03-26T05:55:00.896Z,9.80
2023-03-26T05:56:00.695Z,9.80
2023-03-26T05:57:00.713Z,9.80
2023-03-26T05:58:00.706Z,9.81
2023-03-26T05:59:00.698Z,9.81
2023-03-26T06:00:01.374Z,9.81
2023-03-26T06:01:05.217Z,9.81
2023-03-26T06:02:00.687Z,9.81
2023-03-26T06:03:00.828Z,9.80
2023-03-26T06:04:00.920Z,9.80
2023-03-26T06:05:00.808Z,9.80
2023-03-26T06:06:01.063Z,9.80
2023-03-26T06:07:00.715Z,9.80
2023-03-26T06:08:00.688Z,9.80
2023-03-26T06:09:02.277Z,9.80
2023-03-26T06:10:00.751Z,9.80
2023-03-26T06:11:03.056Z,9.80
2023-03-26T06:12:00.718Z,9.80
2023-03-26T06:13:00.689Z,9.80
2023-03-26T06:14:00.739Z,9.80
2023-03-26T06:15:00.721Z,9.80
2023-03-26T06:16:00.782Z,9.80
2023-03-26T06:17:01.018Z,9.80
2023-03-26T06:18:00.733Z,9.71
2023-03-26T06:19:00.755Z,9.71
2023-03-26T06:20:00.701Z,9.71
2023-03-26T06:21:00.839Z,9.71
2023-03-26T06:22:00.718Z,9.71
2023-03-26T06:23:00.710Z,9.73
2023-03-26T06:24:00.756Z,9.73
2023-03-26T06:25:00.760Z,9.73
2023-03-26T06:26:00.796Z,9.73
2023-03-26T06:27:00.830Z,9.73
2023-03-26T06:28:00.786Z,9.71
2023-03-26T06:29:00.921Z,9.71
2023-03-26T06:30:00.689Z,9.71
2023-03-26T06:32:12.433Z,9.70
2023-03-26T06:33:00.797Z,9.70
2023-03-26T06:34:00.846Z,9.66
2023-03-26T06:35:00.776Z,9.66
2023-03-26T06:36:00.840Z,9.66
2023-03-26T06:37:00.812Z,9.66
2023-03-26T06:38:00.853Z,9.66
2023-03-26T06:39:00.708Z,9.64
2023-03-26T06:40:00.897Z,9.64
2023-03-26T06:41:01.497Z,9.64
2023-03-26T06:42:00.903Z,9.64
2023-03-26T06:43:09.154Z,9.64
2023-03-26T06:44:00.787Z,9.67
2023-03-26T06:45:00.816Z,9.67
2023-03-26T06:46:01.403Z,9.67
2023-03-26T06:47:00.774Z,9.67
2023-03-26T06:48:00.794Z,9.67
2023-03-26T06:49:00.758Z,9.70
2023-03-26T06:50:00.872Z,9.70
2023-03-26T06:51:00.765Z,9.70
2023-03-26T06:52:00.734Z,9.70
2023-03-26T06:53:00.787Z,9.70
2023-03-26T06:54:00.796Z,9.69
2023-03-26T06:55:00.704Z,9.69
2023-03-26T06:56:00.807Z,9.69
2023-03-26T06:57:00.818Z,9.69
2023-03-26T06:58:00.891Z,9.69
2023-03-26T06:59:00.771Z,9.62
2023-03-26T07:00:00.798Z,9.62
2023-03-26T07:01:00.782Z,9.62
2023-03-26T07:02:00.783Z,9.62
2023-03-26T07:03:01.957Z,9.62
2023-03-26T07:04:00.750Z,9.51
2023-03-26T07:05:00.755Z,9.51
2023-03-26T07:06:00.787Z,9.51
2023-03-26T07:07:00.814Z,9.51
2023-03-26T07:08:00.758Z,9.51
2023-03-26T07:09:01.493Z,9.47
2023-03-26T07:10:00.771Z,9.47
2023-03-26T07:11:00.762Z,9.47
2023-03-26T07:12:00.765Z,9.47
2023-03-26T07:13:00.762Z,9.47
2023-03-26T07:14:00.745Z,9.45
2023-03-26T07:15:02.210Z,9.45
2023-03-26T07:16:00.914Z,9.45
2023-03-26T07:17:00.789Z,9.45
2023-03-26T07:18:00.890Z,9.45
2023-03-26T07:19:00.805Z,9.46
2023-03-26T07:20:00.794Z,9.46
2023-03-26T07:21:01.428Z,9.46
2023-03-26T07:22:02.002Z,9.46
2023-03-26T07:23:00.865Z,9.46
2023-03-26T07:24:00.864Z,9.27
2023-03-26T07:25:00.906Z,9.27
2023-03-26T07:26:10.622Z,9.27
2023-03-26T07:27:08.520Z,9.27
2023-03-26T07:28:09.571Z,9.27
2023-03-26T07:29:10.606Z,9.26
2023-03-26T07:30:04.070Z,9.26
2023-03-26T07:31:10.617Z,9.26
2023-03-26T07:32:07.817Z,9.26
2023-03-26T07:33:04.315Z,9.26
2023-03-26T07:34:01.798Z,9.32
2023-03-26T07:35:05.242Z,9.32
2023-03-26T07:36:01.751Z,9.32
2023-03-26T07:37:04.014Z,9.32
2023-03-26T07:38:00.693Z,9.32
2023-03-26T07:39:07.508Z,9.35
2023-03-26T07:40:07.870Z,9.35
2023-03-26T07:41:04.061Z,9.35
2023-03-26T07:42:08.715Z,9.35
2023-03-26T07:43:00.702Z,9.35
2023-03-26T07:44:10.611Z,9.40
2023-03-26T07:45:10.671Z,9.40
2023-03-26T07:46:00.926Z,9.40
2023-03-26T07:47:00.985Z,9.40
2023-03-26T07:48:00.873Z,9.40
2023-03-26T07:49:00.819Z,9.35
2023-03-26T07:50:00.888Z,9.35
2023-03-26T07:51:00.883Z,9.35
2023-03-26T07:52:00.834Z,9.35
2023-03-26T07:53:00.837Z,9.35
2023-03-26T07:54:00.842Z,9.27
2023-03-26T07:55:00.854Z,9.27
2023-03-26T07:56:01.237Z,9.27
2023-03-26T07:57:04.435Z,9.27
2023-03-26T07:58:10.620Z,9.27
2023-03-26T07:59:10.638Z,9.10
2023-03-26T08:00:10.726Z,9.10
2023-03-26T08:01:10.613Z,9.10
2023-03-26T08:02:03.997Z,9.10
2023-03-26T08:03:10.705Z,9.10
2023-03-26T08:04:00.840Z,9.18
2023-03-26T08:05:09.404Z,9.18
2023-03-26T08:06:05.445Z,9.18
2023-03-26T08:07:04.611Z,9.18
2023-03-26T08:08:10.187Z,9.18
2023-03-26T08:09:07.915Z,9.12
2023-03-26T08:10:07.264Z,9.12
2023-03-26T08:11:09.717Z,9.12
2023-03-26T08:12:00.693Z,9.12
2023-03-26T08:13:01.734Z,9.12
2023-03-26T08:14:10.609Z,9.22
2023-03-26T08:15:08.152Z,9.22
2023-03-26T08:16:10.666Z,9.22
2023-03-26T08:17:01.707Z,9.22
2023-03-26T08:18:10.696Z,9.22
2023-03-26T08:19:10.611Z,9.19
2023-03-26T08:20:04.333Z,9.19
2023-03-26T08:21:10.611Z,9.19
2023-03-26T08:22:05.522Z,9.19
2023-03-26T08:23:05.514Z,9.19
2023-03-26T08:24:10.613Z,9.17
2023-03-26T08:25:10.657Z,9.17
2023-03-26T08:26:10.629Z,9.17
2023-03-26T08:27:10.637Z,9.17
2023-03-26T08:28:01.755Z,9.17
2023-03-26T08:29:03.998Z,9.10
2023-03-26T08:30:10.624Z,9.10
2023-03-26T08:31:00.827Z,9.10
2023-03-26T08:32:02.685Z,9.10
2023-03-26T08:33:10.670Z,9.10
2023-03-26T08:34:01.189Z,8.96
2023-03-26T08:35:00.715Z,8.96
2023-03-26T08:36:00.744Z,8.96
2023-03-26T08:37:00.720Z,8.96
2023-03-26T08:38:00.693Z,8.96
2023-03-26T08:39:00.726Z,9.01
2023-03-26T08:40:00.731Z,9.01
2023-03-26T08:41:03.960Z,9.01
2023-03-26T08:42:10.617Z,9.01
2023-03-26T08:43:10.623Z,9.01
2023-03-26T08:44:10.633Z,8.83
2023-03-26T08:45:00.983Z,8.83
2023-03-26T08:46:10.658Z,8.83
2023-03-26T08:47:10.623Z,8.83
2023-03-26T08:48:10.626Z,8.83
2023-03-26T08:49:10.600Z,8.87
2023-03-26T08:50:10.655Z,8.87
2023-03-26T08:51:01.707Z,8.87
2023-03-26T08:52:10.616Z,8.87
2023-03-26T08:53:01.685Z,8.87
2023-03-26T08:54:10.633Z,8.88
2023-03-26T08:55:00.707Z,8.88
2023-03-26T08:56:10.612Z,8.88
2023-03-26T08:57:10.731Z,8.88
2023-03-26T08:58:10.607Z,8.88
2023-03-26T08:59:03.953Z,8.98
2023-03-26T09:00:02.636Z,8.98
2023-03-26T09:01:10.639Z,8.98
2023-03-26T09:02:01.732Z,8.98
2023-03-26T09:03:08.062Z,8.98
2023-03-26T09:04:10.698Z,8.85
2023-03-26T09:05:00.706Z,8.85
2023-03-26T09:06:02.242Z,8.85
2023-03-26T09:07:08.192Z,8.85
2023-03-26T09:08:10.634Z,8.85
2023-03-26T09:09:19.284Z,8.88
2023-03-26T09:10:08.133Z,8.88
2023-03-26T09:11:10.631Z,8.88
2023-03-26T09:12:10.626Z,8.88
2023-03-26T09:13:08.093Z,8.88
2023-03-26T09:14:04.024Z,8.82
2023-03-26T09:15:00.788Z,8.82
2023-03-26T09:16:08.100Z,8.82
2023-03-26T09:17:00.726Z,8.82
2023-03-26T09:18:10.662Z,8.82
2023-03-26T09:19:10.702Z,8.93
2023-03-26T09:20:01.736Z,8.93
2023-03-26T09:21:10.646Z,8.93
2023-03-26T09:22:11.411Z,8.93
2023-03-26T09:23:10.631Z,8.93
2023-03-26T09:24:09.911Z,8.85
2023-03-26T09:25:10.649Z,8.85
2023-03-26T09:26:03.980Z,8.85
2023-03-26T09:27:04.045Z,8.85
2023-03-26T09:28:10.657Z,8.85
2023-03-26T09:29:04.018Z,8.99
2023-03-26T09:30:10.710Z,8.99
2023-03-26T09:31:10.704Z,8.99
2023-03-26T09:32:08.056Z,8.99
2023-03-26T09:33:04.031Z,8.99
2023-03-26T09:34:10.656Z,8.93
2023-03-26T09:35:12.615Z,8.93
2023-03-26T09:36:10.664Z,8.93
2023-03-26T09:37:10.664Z,8.93
2023-03-26T09:38:08.251Z,8.93
2023-03-26T09:39:08.561Z,9.07
2023-03-26T09:40:10.703Z,9.07
2023-03-26T09:41:01.766Z,9.07
2023-03-26T09:42:07.107Z,9.07
2023-03-26T09:43:01.759Z,9.07
2023-03-26T09:44:01.839Z,8.96
2023-03-26T09:45:00.786Z,8.96
2023-03-26T09:46:07.215Z,8.96
2023-03-26T09:47:04.048Z,8.96
2023-03-26T09:48:04.020Z,8.96
2023-03-26T09:49:01.843Z,8.84
2023-03-26T09:50:10.766Z,8.84
2023-03-26T09:51:00.771Z,8.84
2023-03-26T09:52:07.808Z,8.84
2023-03-26T09:53:10.675Z,8.84
2023-03-26T09:54:10.622Z,8.77
2023-03-26T09:55:05.768Z,8.77
2023-03-26T09:56:10.616Z,8.77
2023-03-26T09:57:00.810Z,8.77
2023-03-26T09:58:00.867Z,8.77
2023-03-26T09:59:10.611Z,8.75
2023-03-26T10:00:10.668Z,8.75
2023-03-26T10:01:01.793Z,8.75
2023-03-26T10:02:01.807Z,8.75
2023-03-26T10:03:01.743Z,8.75
2023-03-26T10:04:01.693Z,8.67
2023-03-26T10:05:10.699Z,8.67
2023-03-26T10:06:06.676Z,8.67
2023-03-26T10:07:08.274Z,8.67
2023-03-26T10:08:03.981Z,8.67
2023-03-26T10:09:09.451Z,8.51
2023-03-26T10:10:10.722Z,8.51
2023-03-26T10:11:10.618Z,8.51
2023-03-26T10:12:05.483Z,8.51
2023-03-26T10:13:15.007Z,8.51
2023-03-26T10:14:07.643Z,8.39
2023-03-26T10:15:01.718Z,8.39
2023-03-26T10:16:10.723Z,8.39
2023-03-26T10:17:10.654Z,8.39
2023-03-26T10:18:27.538Z,8.39
2023-03-26T10:19:09.601Z,8.26
2023-03-26T10:20:10.669Z,8.26
2023-03-26T10:21:08.220Z,8.26
2023-03-26T10:22:07.874Z,8.26
2023-03-26T10:23:00.764Z,8.26
2023-03-26T10:24:10.649Z,8.20
2023-03-26T10:25:10.624Z,8.20
2023-03-26T10:26:07.992Z,8.20
2023-03-26T10:27:08.557Z,8.20
2023-03-26T10:28:00.817Z,8.20
2023-03-26T10:29:10.608Z,7.80
2023-03-26T10:30:06.259Z,7.80
2023-03-26T10:31:10.668Z,7.80
2023-03-26T10:32:00.731Z,7.80
2023-03-26T10:33:00.788Z,7.80
2023-03-26T10:34:01.697Z,7.97
2023-03-26T10:35:10.631Z,7.97
2023-03-26T10:36:01.715Z,7.97
2023-03-26T10:37:10.607Z,7.97
2023-03-26T10:38:10.662Z,7.97
2023-03-26T10:39:01.696Z,7.99
2023-03-26T10:40:08.307Z,7.99
2023-03-26T10:41:10.618Z,7.99
2023-03-26T10:42:10.605Z,7.99
2023-03-26T10:43:12.782Z,7.99
2023-03-26T10:44:09.055Z,8.03
2023-03-26T10:45:10.620Z,8.03
2023-03-26T10:46:10.663Z,8.03
2023-03-26T10:47:09.852Z,8.03
2023-03-26T10:48:01.783Z,8.03
2023-03-26T10:49:10.644Z,7.76
2023-03-26T10:50:05.129Z,7.76
2023-03-26T10:51:00.807Z,7.76
2023-03-26T10:52:03.815Z,7.76
2023-03-26T10:53:05.564Z,7.76
2023-03-26T10:54:06.955Z,7.73
2023-03-26T10:55:08.994Z,7.73
2023-03-26T10:56:10.636Z,7.73
2023-03-26T10:57:05.330Z,7.73
2023-03-26T10:58:10.609Z,7.73
2023-03-26T10:59:04.558Z,7.95
2023-03-26T11:00:10.673Z,7.95
2023-03-26T11:01:04.041Z,7.95
2023-03-26T11:02:10.611Z,7.95
2023-03-26T11:03:08.302Z,7.95
2023-03-26T11:04:10.619Z,8.02
2023-03-26T11:05:08.116Z,8.02
2023-03-26T11:06:10.622Z,8.02
2023-03-26T11:07:00.691Z,8.02
2023-03-26T11:08:05.712Z,8.02
2023-03-26T11:09:10.607Z,7.91
2023-03-26T11:10:00.684Z,7.91
2023-03-26T11:11:08.042Z,7.91
2023-03-26T11:12:27.034Z,7.91
2023-03-26T11:13:11.370Z,7.91
2023-03-26T11:14:07.511Z,8.19
2023-03-26T11:15:09.326Z,8.19
2023-03-26T11:16:03.638Z,8.19
2023-03-26T11:17:09.343Z,8.19
2023-03-26T11:18:10.693Z,8.19
2023-03-26T11:19:00.684Z,8.23
2023-03-26T11:20:04.103Z,8.23
2023-03-26T11:21:19.485Z,8.23
2023-03-26T11:22:07.385Z,8.23
2023-03-26T11:23:10.606Z,8.23
2023-03-26T11:24:04.657Z,8.09
2023-03-26T11:25:08.005Z,8.09
2023-03-26T11:26:00.714Z,8.09
2023-03-26T11:27:15.230Z,8.09
2023-03-26T11:28:12.243Z,8.09
2023-03-26T11:29:31.820Z,8.47
2023-03-26T11:30:10.618Z,8.47
2023-03-26T11:31:10.633Z,8.47
2023-03-26T11:32:04.070Z,8.47
2023-03-26T11:33:02.684Z,8.47
2023-03-26T11:34:03.111Z,8.33
2023-03-26T11:35:06.095Z,8.33
2023-03-26T11:36:04.122Z,8.33
2023-03-26T11:37:03.960Z,8.33
2023-03-26T11:38:05.574Z,8.33
2023-03-26T11:39:03.058Z,8.76
2023-03-26T11:40:01.878Z,8.76
2023-03-26T11:41:01.808Z,8.76
2023-03-26T11:42:05.620Z,8.76
2023-03-26T11:43:02.238Z,8.76
2023-03-26T11:44:02.795Z,9.01
2023-03-26T11:45:03.943Z,9.01
2023-03-26T11:46:06.429Z,9.01
2023-03-26T11:47:02.403Z,9.01
2023-03-26T11:48:10.623Z,9.01
2023-03-26T11:49:04.712Z,8.63
2023-03-26T11:50:02.431Z,8.63
2023-03-26T11:51:03.837Z,8.63
2023-03-26T11:52:00.723Z,8.63
2023-03-26T11:53:08.639Z,8.63
2023-03-26T11:54:00.796Z,8.66
2023-03-26T11:55:00.753Z,8.66
2023-03-26T11:56:03.625Z,8.66
2023-03-26T11:57:07.143Z,8.66
2023-03-26T11:58:02.628Z,8.66
2023-03-26T11:59:03.927Z,8.57
2023-03-26T12:00:05.230Z,8.57
2023-03-26T12:01:03.154Z,8.57
2023-03-26T12:02:03.995Z,8.57
2023-03-26T12:03:00.737Z,8.57
2023-03-26T12:04:04.724Z,8.53
2023-03-26T12:05:06.883Z,8.53
2023-03-26T12:06:00.707Z,8.53
2023-03-26T12:07:07.752Z,8.53
2023-03-26T12:08:03.116Z,8.53
2023-03-26T12:09:01.276Z,8.34
2023-03-26T12:10:18.179Z,8.34
2023-03-26T12:11:03.486Z,8.34
2023-03-26T12:12:02.498Z,8.34
2023-03-26T12:13:01.971Z,8.34
2023-03-26T12:14:02.678Z,8.86
2023-03-26T12:15:01.037Z,8.86
2023-03-26T12:16:07.573Z,8.86
2023-03-26T12:17:04.049Z,8.86
2023-03-26T12:18:10.688Z,8.86
2023-03-26T12:19:02.473Z,8.81
2023-03-26T12:20:01.076Z,8.81
2023-03-26T12:21:05.474Z,8.81
2023-03-26T12:22:00.687Z,8.81
2023-03-26T12:23:01.588Z,8.81
2023-03-26T12:24:01.794Z,8.87
2023-03-26T12:25:10.473Z,8.87
2023-03-26T12:26:10.164Z,8.87
2023-03-26T12:27:10.610Z,8.87
2023-03-26T12:28:02.396Z,8.87
2023-03-26T12:29:06.306Z,8.91
2023-03-26T12:30:10.434Z,8.91
2023-03-26T12:31:01.692Z,8.91
2023-03-26T12:32:03.794Z,8.91
2023-03-26T12:33:02.937Z,8.91
2023-03-26T12:34:03.427Z,8.96
2023-03-26T12:35:10.690Z,8.96
2023-03-26T12:36:10.676Z,8.96
2023-03-26T12:37:01.569Z,8.96
2023-03-26T12:38:10.630Z,8.96
2023-03-26T12:40:07.882Z,9.07
2023-03-26T12:40:09.177Z,9.07
2023-03-26T12:42:25.776Z,9.07
2023-03-26T12:44:44.496Z,9.07
2023-03-26T12:44:52.875Z,9.10
2023-03-26T12:44:54.770Z,9.07
2023-03-26T12:45:01.362Z,9.10
2023-03-26T12:47:56.432Z,9.10
2023-03-26T12:48:00.846Z,9.10
2023-03-26T12:48:03.516Z,9.10
2023-03-26T12:49:03.016Z,9.08
2023-03-26T12:50:00.848Z,9.08
2023-03-26T12:51:07.754Z,9.08
2023-03-26T12:52:09.395Z,9.08
2023-03-26T12:53:10.616Z,9.08
2023-03-26T12:54:10.607Z,9.17
2023-03-26T12:55:12.261Z,9.17
2023-03-26T12:56:01.693Z,9.17
2023-03-26T12:57:11.628Z,9.17
2023-03-26T12:58:13.733Z,9.17
2023-03-26T12:59:08.167Z,9.09
2023-03-26T13:00:10.676Z,9.09
2023-03-26T13:01:07.516Z,9.09
2023-03-26T13:02:10.674Z,9.09
2023-03-26T13:03:00.782Z,9.09
2023-03-26T13:04:10.610Z,8.88
2023-03-26T13:05:10.594Z,8.88
2023-03-26T13:06:10.621Z,8.88
2023-03-26T13:07:05.673Z,8.88
2023-03-26T13:08:10.609Z,8.88
2023-03-26T13:09:08.845Z,9.10
2023-03-26T13:10:10.639Z,9.10
2023-03-26T13:11:10.685Z,9.10